Chemstar Masa — 3FGM7 — position and weather

sailwx.info

Track history (hours):
 
Tides and Currents Weather Stations Pressure Air Temp Water Temp Dewpoint Dewpoint Depression Visibility Wind Speed Wind Dir Waves Ship Positions

Chemstar Masa

Last reported at 2017-Oct-22 09:58 UTC. Time now 2017-Oct-22 10:08 UTC.
Position N 31°35' E 121°17'.

Length 148 m; draft 8.1 m.

Type: Ship (hazmat cat B). MMSI: 353456000.

Date/timePositionNaut miles runAvg speedWind from/ knotsBaromVisibWave heightAir tempDewpointWater temp
2017-Oct-22 09:58N 31°35' E 121°17'0 0.0
2017-Oct-22 09:28N 31°35' E 121°17'0 0.0
2017-Oct-22 08:58N 31°35' E 121°17'0 0.0
2017-Oct-22 08:28N 31°35' E 121°17'0 0.0
2017-Oct-22 07:52N 31°35' E 121°17'0 0.0
2017-Oct-22 07:28N 31°35' E 121°17'0 0.0
2017-Oct-22 06:55N 31°35' E 121°17'0 0.0
2017-Oct-22 06:28N 31°35' E 121°17'0 0.0
2017-Oct-22 05:58N 31°35' E 121°17'0 0.0
2017-Oct-22 05:28N 31°35' E 121°17'0 0.0
2017-Oct-22 04:58N 31°35' E 121°17'0 0.0
2017-Oct-22 04:28N 31°35' E 121°17'0 0.0
2017-Oct-22 03:49N 31°35' E 121°17'0 0.0
2017-Oct-22 03:28N 31°35' E 121°17'0 0.0
2017-Oct-22 02:58N 31°35' E 121°17'0 0.0
2017-Oct-22 02:28N 31°35' E 121°17'0 0.0
2017-Oct-22 01:58N 31°35' E 121°17'0 0.0
2017-Oct-22 01:25N 31°35' E 121°17'0 0.1
2017-Oct-22 01:00N 31°35' E 121°17'2 3.6
2017-Oct-22 00:30N 31°34' E 121°19'1 2.4
2017-Oct-22 00:00N 31°34' E 121°20'0 0.0
2017-Oct-21 23:24N 31°34' E 121°20'0 0.1
2017-Oct-21 23:00N 31°34' E 121°20'0 0.1
2017-Oct-21 22:27N 31°34' E 121°20'0 0.0
2017-Oct-21 22:00N 31°34' E 121°20'0 0.0
2017-Oct-21 21:30N 31°34' E 121°20'0 0.0
2017-Oct-21 21:00N 31°34' E 121°20'0 0.0
2017-Oct-21 20:24N 31°34' E 121°20'0 0.1
2017-Oct-21 20:00N 31°34' E 121°20'0 0.0
2017-Oct-21 19:30N 31°34' E 121°20'0 0.3
2017-Oct-21 19:00N 31°34' E 121°20'0 0.1
2017-Oct-21 18:30N 31°34' E 121°20'0 0.0
2017-Oct-21 18:00N 31°34' E 121°20'0 0.0
2017-Oct-21 17:30N 31°34' E 121°20'0 0.0
2017-Oct-21 17:00N 31°34' E 121°20'0 0.1
2017-Oct-21 16:27N 31°34' E 121°20'0 0.3
2017-Oct-21 16:00N 31°34' E 121°20'0 0.1
2017-Oct-21 15:30N 31°34' E 121°20'0 0.1
2017-Oct-21 15:00N 31°34' E 121°20'0 0.0
2017-Oct-21 14:00N 31°34' E 121°20'0 0.0
2017-Oct-21 13:30N 31°34' E 121°20'0 0.0
2017-Oct-21 12:54N 31°34' E 121°20'0 0.0
2017-Oct-21 12:24N 31°34' E 121°20'0 0.1
2017-Oct-21 12:00N 31°34' E 121°20'0 0.1
2017-Oct-21 11:27N 31°34' E 121°20'0 0.0
2017-Oct-21 11:00N 31°34' E 121°20'0 0.0
2017-Oct-21 10:30N 31°34' E 121°20'0 0.0
2017-Oct-21 09:54N 31°34' E 121°20'0 0.0
2017-Oct-21 09:27N 31°34' E 121°20'0 0.0
2017-Oct-21 08:57N 31°34' E 121°20'0 0.4
2017-Oct-21 08:30N 31°34' E 121°20'612.0
2017-Oct-21 08:00N 31°38' E 121°15'714.3
2017-Oct-21 07:30N 31°42' E 121°08'613.0
2017-Oct-21 07:00N 31°46' E 121°02'2910.4
2017-Oct-21 04:15N 32°01' E 120°33'313.5
2017-Oct-21 04:00N 32°02' E 120°29'3 0.1
2017-Oct-19 08:04N 32°02' E 120°26'3 7.9
2017-Oct-19 07:40N 32°02' E 120°30'213.1
2017-Oct-19 07:30N 32°01' E 120°32'3010.9
2017-Oct-19 04:42N 31°46' E 121°03'314.8
2017-Oct-19 04:28N 31°44' E 121°07'714.4
2017-Oct-19 04:00N 31°40' E 121°13'714.3
2017-Oct-19 03:30N 31°35' E 121°18'612.3
2017-Oct-19 03:00N 31°31' E 121°24'611.6
2017-Oct-19 02:30N 31°27' E 121°29'4 9.0
2017-Oct-19 02:00N 31°24' E 121°33'611.5
2017-Oct-19 01:30N 31°21' E 121°39'611.6
2017-Oct-19 01:00N 31°19' E 121°45'611.3
2017-Oct-19 00:30N 31°16' E 121°51'5 9.5
2017-Oct-19 00:01N 31°15' E 121°57'5 9.9
2017-Oct-18 23:30N 31°14' E 122°02'5 9.5
2017-Oct-18 23:00N 31°13' E 122°08'4 7.2
2017-Oct-18 22:30N 31°11' E 122°11'3 6.8
2017-Oct-18 22:00N 31°09' E 122°14'3 6.7
2017-Oct-18 21:30N 31°07' E 122°17'5 9.0
2017-Oct-18 21:00N 31°06' E 122°23'5 8.5
2017-Oct-18 20:29N 31°07' E 122°28'  
Track history (hours):
 
Tides and Currents Weather Stations Pressure Air Temp Water Temp Dewpoint Dewpoint Depression Visibility Wind Speed Wind Dir Waves Ship Positions

Chemstar Masa

Last reported at 2017-Oct-22 09:58 UTC. Time now 2017-Oct-22 10:08 UTC.
Position N 31°35' E 121°17'.

Length 148 m; draft 8.1 m.

Type: Ship (hazmat cat B). MMSI: 353456000.

Date/timePositionNaut miles runAvg speedWind from/ knotsBaromVisibWave heightAir tempDewpointWater temp
2017-Oct-22 09:58N 31°35' E 121°17'0 0.0
2017-Oct-22 09:28N 31°35' E 121°17'0 0.0
2017-Oct-22 08:58N 31°35' E 121°17'0 0.0
2017-Oct-22 08:28N 31°35' E 121°17'0 0.0
2017-Oct-22 07:52N 31°35' E 121°17'0 0.0
2017-Oct-22 07:28N 31°35' E 121°17'0 0.0
2017-Oct-22 06:55N 31°35' E 121°17'0 0.0
2017-Oct-22 06:28N 31°35' E 121°17'0 0.0
2017-Oct-22 05:58N 31°35' E 121°17'0 0.0
2017-Oct-22 05:28N 31°35' E 121°17'0 0.0
2017-Oct-22 04:58N 31°35' E 121°17'0 0.0
2017-Oct-22 04:28N 31°35' E 121°17'0 0.0
2017-Oct-22 03:49N 31°35' E 121°17'0 0.0
2017-Oct-22 03:28N 31°35' E 121°17'0 0.0
2017-Oct-22 02:58N 31°35' E 121°17'0 0.0
2017-Oct-22 02:28N 31°35' E 121°17'0 0.0
2017-Oct-22 01:58N 31°35' E 121°17'0 0.0
2017-Oct-22 01:25N 31°35' E 121°17'0 0.1
2017-Oct-22 01:00N 31°35' E 121°17'2 3.6
2017-Oct-22 00:30N 31°34' E 121°19'1 2.4
2017-Oct-22 00:00N 31°34' E 121°20'0 0.0
2017-Oct-21 23:24N 31°34' E 121°20'0 0.1
2017-Oct-21 23:00N 31°34' E 121°20'0 0.1
2017-Oct-21 22:27N 31°34' E 121°20'0 0.0
2017-Oct-21 22:00N 31°34' E 121°20'0 0.0
2017-Oct-21 21:30N 31°34' E 121°20'0 0.0
2017-Oct-21 21:00N 31°34' E 121°20'0 0.0
2017-Oct-21 20:24N 31°34' E 121°20'0 0.1
2017-Oct-21 20:00N 31°34' E 121°20'0 0.0
2017-Oct-21 19:30N 31°34' E 121°20'0 0.3
2017-Oct-21 19:00N 31°34' E 121°20'0 0.1
2017-Oct-21 18:30N 31°34' E 121°20'0 0.0
2017-Oct-21 18:00N 31°34' E 121°20'0 0.0
2017-Oct-21 17:30N 31°34' E 121°20'0 0.0
2017-Oct-21 17:00N 31°34' E 121°20'0 0.1
2017-Oct-21 16:27N 31°34' E 121°20'0 0.3
2017-Oct-21 16:00N 31°34' E 121°20'0 0.1
2017-Oct-21 15:30N 31°34' E 121°20'0 0.1
2017-Oct-21 15:00N 31°34' E 121°20'0 0.0
2017-Oct-21 14:00N 31°34' E 121°20'0 0.0
2017-Oct-21 13:30N 31°34' E 121°20'0 0.0
2017-Oct-21 12:54N 31°34' E 121°20'0 0.0
2017-Oct-21 12:24N 31°34' E 121°20'0 0.1
2017-Oct-21 12:00N 31°34' E 121°20'0 0.1
2017-Oct-21 11:27N 31°34' E 121°20'0 0.0
2017-Oct-21 11:00N 31°34' E 121°20'0 0.0
2017-Oct-21 10:30N 31°34' E 121°20'0 0.0
2017-Oct-21 09:54N 31°34' E 121°20'0 0.0
2017-Oct-21 09:27N 31°34' E 121°20'0 0.0
2017-Oct-21 08:57N 31°34' E 121°20'0 0.4
2017-Oct-21 08:30N 31°34' E 121°20'612.0
2017-Oct-21 08:00N 31°38' E 121°15'714.3
2017-Oct-21 07:30N 31°42' E 121°08'613.0
2017-Oct-21 07:00N 31°46' E 121°02'2910.4
2017-Oct-21 04:15N 32°01' E 120°33'313.5
2017-Oct-21 04:00N 32°02' E 120°29'3 0.1
2017-Oct-19 08:04N 32°02' E 120°26'3 7.9
2017-Oct-19 07:40N 32°02' E 120°30'213.1
2017-Oct-19 07:30N 32°01' E 120°32'3010.9
2017-Oct-19 04:42N 31°46' E 121°03'314.8
2017-Oct-19 04:28N 31°44' E 121°07'714.4
2017-Oct-19 04:00N 31°40' E 121°13'714.3
2017-Oct-19 03:30N 31°35' E 121°18'612.3
2017-Oct-19 03:00N 31°31' E 121°24'611.6
2017-Oct-19 02:30N 31°27' E 121°29'4 9.0
2017-Oct-19 02:00N 31°24' E 121°33'611.5
2017-Oct-19 01:30N 31°21' E 121°39'611.6
2017-Oct-19 01:00N 31°19' E 121°45'611.3
2017-Oct-19 00:30N 31°16' E 121°51'5 9.5
2017-Oct-19 00:01N 31°15' E 121°57'5 9.9
2017-Oct-18 23:30N 31°14' E 122°02'5 9.5
2017-Oct-18 23:00N 31°13' E 122°08'4 7.2
2017-Oct-18 22:30N 31°11' E 122°11'3 6.8
2017-Oct-18 22:00N 31°09' E 122°14'3 6.7
2017-Oct-18 21:30N 31°07' E 122°17'5 9.0
2017-Oct-18 21:00N 31°06' E 122°23'5 8.5
2017-Oct-18 20:29N 31°07' E 122°28'  

Dump ship's entire track history